sensor_id;sensor_type;location;lat;lon;timestamp;pressure;altitude;pressure_sealevel;temperature;humidity
70323;BME280;57735;56.264;43.898;2023-02-23T00:02:00;99862.66;;;-14.00;65.36
70323;BME280;57735;56.264;43.898;2023-02-23T00:04:36;99866.94;;;-14.00;65.64
70323;BME280;57735;56.264;43.898;2023-02-23T00:07:07;99880.59;;;-14.00;65.51
70323;BME280;57735;56.264;43.898;2023-02-23T00:09:39;99877.19;;;-14.00;65.38
70323;BME280;57735;56.264;43.898;2023-02-23T00:12:09;99868.66;;;-14.02;65.33
70323;BME280;57735;56.264;43.898;2023-02-23T00:14:43;99870.34;;;-14.01;65.43
70323;BME280;57735;56.264;43.898;2023-02-23T00:17:13;99869.50;;;-14.02;65.70
70323;BME280;57735;56.264;43.898;2023-02-23T00:19:47;99875.50;;;-14.04;65.49
70323;BME280;57735;56.264;43.898;2023-02-23T00:22:18;99864.47;;;-14.09;65.64
70323;BME280;57735;56.264;43.898;2023-02-23T00:24:49;99870.47;;;-14.12;65.86
70323;BME280;57735;56.264;43.898;2023-02-23T00:27:20;99870.47;;;-14.15;66.13
70323;BME280;57735;56.264;43.898;2023-02-23T00:29:50;99870.50;;;-14.18;65.62
70323;BME280;57735;56.264;43.898;2023-02-23T00:32:24;99867.09;;;-14.19;65.93
70323;BME280;57735;56.264;43.898;2023-02-23T00:34:55;99875.59;;;-14.15;65.96
70323;BME280;57735;56.264;43.898;2023-02-23T00:37:27;99873.88;;;-14.13;65.71
70323;BME280;57735;56.264;43.898;2023-02-23T00:39:58;99873.91;;;-14.16;65.95
70323;BME280;57735;56.264;43.898;2023-02-23T00:42:29;99885.81;;;-14.12;66.00
70323;BME280;57735;56.264;43.898;2023-02-23T00:45:01;99880.69;;;-14.09;65.86
70323;BME280;57735;56.264;43.898;2023-02-23T00:47:39;99879.84;;;-14.13;65.58
70323;BME280;57735;56.264;43.898;2023-02-23T00:50:14;99885.81;;;-14.12;65.66
70323;BME280;57735;56.264;43.898;2023-02-23T00:52:45;99882.41;;;-14.11;65.47
70323;BME280;57735;56.264;43.898;2023-02-23T00:55:15;99888.38;;;-14.10;65.67
70323;BME280;57735;56.264;43.898;2023-02-23T00:57:49;99890.88;;;-14.06;65.76
70323;BME280;57735;56.264;43.898;2023-02-23T01:00:20;99893.41;;;-14.04;65.35
70323;BME280;57735;56.264;43.898;2023-02-23T01:02:51;99886.59;;;-14.05;65.25
70323;BME280;57735;56.264;43.898;2023-02-23T01:05:25;99890.00;;;-14.03;65.57
70323;BME280;57735;56.264;43.898;2023-02-23T01:07:56;99899.38;;;-14.02;65.05
70323;BME280;57735;56.264;43.898;2023-02-23T01:10:29;99902.81;;;-14.06;65.37
70323;BME280;57735;56.264;43.898;2023-02-23T01:13:00;99899.41;;;-14.07;65.37
70323;BME280;57735;56.264;43.898;2023-02-23T01:15:31;99913.13;;;-14.11;65.33
70323;BME280;57735;56.264;43.898;2023-02-23T01:18:02;99914.84;;;-14.13;65.39
70323;BME280;57735;56.264;43.898;2023-02-23T01:20:34;99911.41;;;-14.10;65.50
70323;BME280;57735;56.264;43.898;2023-02-23T01:23:05;99911.41;;;-14.10;65.50
70323;BME280;57735;56.264;43.898;2023-02-23T01:25:37;99917.31;;;-14.05;65.34
70323;BME280;57735;56.264;43.898;2023-02-23T01:28:09;99920.72;;;-14.05;65.17
70323;BME280;57735;56.264;43.898;2023-02-23T01:30:43;99924.97;;;-14.02;65.37
70323;BME280;57735;56.264;43.898;2023-02-23T01:33:14;99928.41;;;-14.02;65.25
70323;BME280;57735;56.264;43.898;2023-02-23T01:35:56;99930.94;;;-13.99;65.14
70323;BME280;57735;56.264;43.898;2023-02-23T01:38:30;99937.81;;;-14.05;65.27
70323;BME280;57735;56.264;43.898;2023-02-23T01:41:00;99925.00;;;-14.04;65.35
70323;BME280;57735;56.264;43.898;2023-02-23T01:43:31;99929.28;;;-14.06;65.28
70323;BME280;57735;56.264;43.898;2023-02-23T01:46:02;99922.44;;;-14.05;65.47
70323;BME280;57735;56.264;43.898;2023-02-23T01:48:36;99932.69;;;-14.05;65.06
70323;BME280;57735;56.264;43.898;2023-02-23T01:51:19;99925.91;;;-14.09;65.55
70323;BME280;57735;56.264;43.898;2023-02-23T01:53:59;99933.53;;;-14.05;65.40
70323;BME280;57735;56.264;43.898;2023-02-23T01:56:36;99941.22;;;-14.05;65.38
70323;BME280;57735;56.264;43.898;2023-02-23T01:59:13;99933.53;;;-14.05;65.42
70323;BME280;57735;56.264;43.898;2023-02-23T02:01:44;99935.19;;;-13.98;65.12
70323;BME280;57735;56.264;43.898;2023-02-23T02:04:17;99938.53;;;-13.90;64.93
70323;BME280;57735;56.264;43.898;2023-02-23T02:06:50;99935.88;;;-13.78;64.87
70323;BME280;57735;56.264;43.898;2023-02-23T02:09:23;99931.59;;;-13.75;64.56
70323;BME280;57735;56.264;43.898;2023-02-23T02:11:57;99935.88;;;-13.78;64.59
70323;BME280;57735;56.264;43.898;2023-02-23T02:14:32;99941.78;;;-13.72;64.67
70323;BME280;57735;56.264;43.898;2023-02-23T02:23:30;99953.72;;;-13.68;64.24
70323;BME280;57735;56.264;43.898;2023-02-23T02:26:14;99957.91;;;-13.58;64.46
70323;BME280;57735;56.264;43.898;2023-02-23T02:40:53;99972.56;;;-13.74;64.03
70323;BME280;57735;56.264;43.898;2023-02-23T02:43:44;99969.19;;;-13.81;64.28
70323;BME280;57735;56.264;43.898;2023-02-23T02:46:26;99964.94;;;-13.83;64.20
70323;BME280;57735;56.264;43.898;2023-02-23T02:49:04;99970.94;;;-13.86;64.27
70323;BME280;57735;56.264;43.898;2023-02-23T02:54:41;99969.31;;;-13.93;64.53
70323;BME280;57735;56.264;43.898;2023-02-23T02:57:21;99975.25;;;-13.91;64.41
70323;BME280;57735;56.264;43.898;2023-02-23T02:59:56;99971.88;;;-13.93;64.48
70323;BME280;57735;56.264;43.898;2023-02-23T03:02:47;99971.78;;;-13.87;64.56
70323;BME280;57735;56.264;43.898;2023-02-23T03:05:40;99977.78;;;-13.88;64.72
70323;BME280;57735;56.264;43.898;2023-02-23T03:08:33;99976.06;;;-13.89;64.69
70323;BME280;57735;56.264;43.898;2023-02-23T03:11:35;99972.59;;;-13.80;64.75
70323;BME280;57735;56.264;43.898;2023-02-23T03:17:38;99969.31;;;-13.96;64.48
70323;BME280;57735;56.264;43.898;2023-02-23T03:26:47;99980.44;;;-14.00;64.57
70323;BME280;57735;56.264;43.898;2023-02-23T03:29:44;99979.59;;;-14.02;64.63
70323;BME280;57735;56.264;43.898;2023-02-23T03:32:44;99979.59;;;-14.02;64.63
70323;BME280;57735;56.264;43.898;2023-02-23T03:36:02;99977.88;;;-13.98;64.46
70323;BME280;57735;56.264;43.898;2023-02-23T03:39:18;99983.88;;;-14.02;64.81
70323;BME280;57735;56.264;43.898;2023-02-23T03:42:13;99981.31;;;-14.01;64.67
70323;BME280;57735;56.264;43.898;2023-02-23T03:45:15;99991.53;;;-14.01;64.27
70323;BME280;57735;56.264;43.898;2023-02-23T03:48:11;99986.44;;;-14.04;64.72
70323;BME280;57735;56.264;43.898;2023-02-23T03:51:05;99984.75;;;-14.05;64.82
70323;BME280;57735;56.264;43.898;2023-02-23T03:56:57;99988.16;;;-14.06;64.77
70323;BME280;57735;56.264;43.898;2023-02-23T03:59:54;99989.81;;;-13.99;64.93
70323;BME280;57735;56.264;43.898;2023-02-23T04:02:48;100000.03;;;-13.93;64.73
70323;BME280;57735;56.264;43.898;2023-02-23T04:05:39;99987.16;;;-13.85;64.60
70323;BME280;57735;56.264;43.898;2023-02-23T04:08:34;99996.50;;;-13.80;64.68
70323;BME280;57735;56.264;43.898;2023-02-23T04:14:35;100013.56;;;-13.74;64.43
70323;BME280;57735;56.264;43.898;2023-02-23T04:17:08;100002.44;;;-13.74;64.48
70323;BME280;57735;56.264;43.898;2023-02-23T04:19:50;100000.66;;;-13.66;64.69
70323;BME280;57735;56.264;43.898;2023-02-23T04:22:23;100002.38;;;-13.67;64.50
70323;BME280;57735;56.264;43.898;2023-02-23T04:24:54;99998.06;;;-13.60;64.55
70323;BME280;57735;56.264;43.898;2023-02-23T04:27:25;99994.56;;;-13.53;64.55
70323;BME280;57735;56.264;43.898;2023-02-23T04:29:56;100006.50;;;-13.52;64.09
70323;BME280;57735;56.264;43.898;2023-02-23T04:32:28;99996.28;;;-13.55;63.95
70323;BME280;57735;56.264;43.898;2023-02-23T04:34:59;100003.09;;;-13.53;64.39
70323;BME280;57735;56.264;43.898;2023-02-23T04:37:30;99998.78;;;-13.49;64.25
70323;BME280;57735;56.264;43.898;2023-02-23T04:40:01;100004.75;;;-13.46;63.63
70323;BME280;57735;56.264;43.898;2023-02-23T04:42:34;99996.19;;;-13.45;63.71
70323;BME280;57735;56.264;43.898;2023-02-23T04:45:05;100005.59;;;-13.45;63.79
70323;BME280;57735;56.264;43.898;2023-02-23T04:47:39;100008.22;;;-13.51;63.68
70323;BME280;57735;56.264;43.898;2023-02-23T04:50:10;100004.78;;;-13.50;63.97
70323;BME280;57735;56.264;43.898;2023-02-23T04:52:41;100003.09;;;-13.51;63.53
70323;BME280;57735;56.264;43.898;2023-02-23T04:55:19;100016.84;;;-13.61;63.78
70323;BME280;57735;56.264;43.898;2023-02-23T04:57:55;100017.72;;;-13.64;64.00
70323;BME280;57735;56.264;43.898;2023-02-23T05:00:27;100015.19;;;-13.70;63.63
70323;BME280;57735;56.264;43.898;2023-02-23T05:02:58;100028.88;;;-13.72;64.07
70323;BME280;57735;56.264;43.898;2023-02-23T05:05:29;100021.25;;;-13.75;63.71
70323;BME280;57735;56.264;43.898;2023-02-23T05:08:00;100027.13;;;-13.67;63.71
70323;BME280;57735;56.264;43.898;2023-02-23T05:10:31;100029.56;;;-13.54;63.49
70323;BME280;57735;56.264;43.898;2023-02-23T05:13:04;100032.94;;;-13.47;63.15
70323;BME280;57735;56.264;43.898;2023-02-23T05:15:35;100034.63;;;-13.43;62.48
70323;BME280;57735;56.264;43.898;2023-02-23T05:18:07;100035.47;;;-13.41;62.47
70323;BME280;57735;56.264;43.898;2023-02-23T05:20:43;100032.84;;;-13.35;62.21
70323;BME280;57735;56.264;43.898;2023-02-23T05:23:17;100032.78;;;-13.27;62.14
70323;BME280;57735;56.264;43.898;2023-02-23T05:25:48;100030.13;;;-13.20;61.83
70323;BME280;57735;56.264;43.898;2023-02-23T05:28:19;100030.84;;;-13.09;61.50
70323;BME280;57735;56.264;43.898;2023-02-23T05:30:50;100036.75;;;-13.03;60.94
70323;BME280;57735;56.264;43.898;2023-02-23T05:33:21;100037.69;;;-13.11;60.92
70323;BME280;57735;56.264;43.898;2023-02-23T05:35:51;100049.78;;;-13.19;60.97
70323;BME280;57735;56.264;43.898;2023-02-23T05:38:25;100052.44;;;-13.28;61.01
70323;BME280;57735;56.264;43.898;2023-02-23T05:40:56;100044.66;;;-13.22;61.28
70323;BME280;57735;56.264;43.898;2023-02-23T05:43:27;100040.47;;;-13.29;60.97
70323;BME280;57735;56.264;43.898;2023-02-23T05:45:58;100033.66;;;-13.30;60.98
70323;BME280;57735;56.264;43.898;2023-02-23T05:48:30;100041.25;;;-13.22;61.37
70323;BME280;57735;56.264;43.898;2023-02-23T05:51:03;100052.13;;;-13.02;60.83
70323;BME280;57735;56.264;43.898;2023-02-23T05:53:34;100046.00;;;-12.89;60.78
70323;BME280;57735;56.264;43.898;2023-02-23T05:56:07;100046.75;;;-12.79;59.86
70323;BME280;57735;56.264;43.898;2023-02-23T05:58:40;100051.94;;;-12.84;59.47
70323;BME280;57735;56.264;43.898;2023-02-23T06:01:14;100043.31;;;-12.77;59.73
70323;BME280;57735;56.264;43.898;2023-02-23T06:03:46;100042.53;;;-12.83;59.17
70323;BME280;57735;56.264;43.898;2023-02-23T06:06:17;100053.50;;;-12.72;58.97
70323;BME280;57735;56.264;43.898;2023-02-23T06:08:51;100041.41;;;-12.61;58.86
70323;BME280;57735;56.264;43.898;2023-02-23T06:11:22;100042.06;;;-12.44;58.55
70323;BME280;57735;56.264;43.898;2023-02-23T06:13:57;100039.53;;;-12.47;57.52
70323;BME280;57735;56.264;43.898;2023-02-23T06:16:29;100035.94;;;-12.33;57.96
70323;BME280;57735;56.264;43.898;2023-02-23T06:19:03;100038.56;;;-12.38;57.64
70323;BME280;57735;56.264;43.898;2023-02-23T06:21:34;100040.97;;;-12.24;57.48
70323;BME280;57735;56.264;43.898;2023-02-23T06:24:05;100034.84;;;-12.16;57.19
70323;BME280;57735;56.264;43.898;2023-02-23T06:26:36;100049.44;;;-12.21;56.67
70323;BME280;57735;56.264;43.898;2023-02-23T06:29:07;100041.22;;;-12.46;56.99
70323;BME280;57735;56.264;43.898;2023-02-23T06:31:40;100050.66;;;-12.48;57.64
70323;BME280;57735;56.264;43.898;2023-02-23T06:34:14;100049.91;;;-12.56;57.29
70323;BME280;57735;56.264;43.898;2023-02-23T06:36:45;100050.81;;;-12.58;57.56
70323;BME280;57735;56.264;43.898;2023-02-23T06:39:15;100056.66;;;-12.49;57.11
70323;BME280;57735;56.264;43.898;2023-02-23T06:41:47;100055.84;;;-12.54;57.29
70323;BME280;57735;56.264;43.898;2023-02-23T06:44:18;100061.66;;;-12.40;57.10
70323;BME280;57735;56.264;43.898;2023-02-23T06:46:49;100061.56;;;-12.29;56.84
70323;BME280;57735;56.264;43.898;2023-02-23T06:49:19;100062.22;;;-12.16;56.79
70323;BME280;57735;56.264;43.898;2023-02-23T06:51:50;100059.84;;;-12.28;55.86
70323;BME280;57735;56.264;43.898;2023-02-23T06:54:21;100067.00;;;-12.55;56.49
70323;BME280;57735;56.264;43.898;2023-02-23T06:56:53;100066.25;;;-12.64;56.88
70323;BME280;57735;56.264;43.898;2023-02-23T06:59:25;100067.63;;;-12.38;56.76
70323;BME280;57735;56.264;43.898;2023-02-23T07:01:55;100065.16;;;-12.44;56.03
70323;BME280;57735;56.264;43.898;2023-02-23T07:04:29;100064.25;;;-12.40;56.09
70323;BME280;57735;56.264;43.898;2023-02-23T07:07:00;100080.44;;;-12.33;56.13
70323;BME280;57735;56.264;43.898;2023-02-23T07:09:31;100067.56;;;-12.31;55.47
70323;BME280;57735;56.264;43.898;2023-02-23T07:12:01;100076.63;;;-12.06;55.43
70323;BME280;57735;56.264;43.898;2023-02-23T07:14:33;100069.53;;;-11.89;55.51
70323;BME280;57735;56.264;43.898;2023-02-23T07:17:04;100072.88;;;-11.81;55.07
70323;BME280;57735;56.264;43.898;2023-02-23T07:19:35;100069.94;;;-11.59;54.39
70323;BME280;57735;56.264;43.898;2023-02-23T07:22:06;100082.06;;;-11.68;54.37
70323;BME280;57735;56.264;43.898;2023-02-23T07:24:39;100070.38;;;-11.87;54.55
70323;BME280;57735;56.264;43.898;2023-02-23T07:27:10;100061.81;;;-11.86;54.91
70323;BME280;57735;56.264;43.898;2023-02-23T07:29:40;100081.19;;;-11.67;54.98
70323;BME280;57735;56.264;43.898;2023-02-23T07:32:13;100077.69;;;-11.61;54.66
70323;BME280;57735;56.264;43.898;2023-02-23T07:34:46;100068.41;;;-11.73;54.98
70323;BME280;57735;56.264;43.898;2023-02-23T07:37:17;100081.16;;;-11.64;54.54
70323;BME280;57735;56.264;43.898;2023-02-23T07:39:50;100066.56;;;-11.61;54.72
70323;BME280;57735;56.264;43.898;2023-02-23T07:42:21;100083.38;;;-11.41;54.62
70323;BME280;57735;56.264;43.898;2023-02-23T07:44:52;100083.41;;;-11.42;54.43
70323;BME280;57735;56.264;43.898;2023-02-23T07:47:23;100080.88;;;-11.45;53.98
70323;BME280;57735;56.264;43.898;2023-02-23T07:50:02;100082.81;;;-11.59;54.59
70323;BME280;57735;56.264;43.898;2023-02-23T07:52:39;100081.13;;;-11.62;54.57
70323;BME280;57735;56.264;43.898;2023-02-23T07:55:10;100083.16;;;-11.81;54.51
70323;BME280;57735;56.264;43.898;2023-02-23T07:57:43;100094.94;;;-11.71;54.97
70323;BME280;57735;56.264;43.898;2023-02-23T08:00:14;100085.41;;;-11.63;54.95
70323;BME280;57735;56.264;43.898;2023-02-23T08:02:45;100086.22;;;-11.59;54.98
70323;BME280;57735;56.264;43.898;2023-02-23T08:05:15;100083.44;;;-11.45;54.45
70323;BME280;57735;56.264;43.898;2023-02-23T08:07:46;100083.25;;;-11.35;53.80
70323;BME280;57735;56.264;43.898;2023-02-23T08:10:20;100098.03;;;-11.47;53.64
70323;BME280;57735;56.264;43.898;2023-02-23T08:12:51;100084.34;;;-11.49;53.81
70323;BME280;57735;56.264;43.898;2023-02-23T08:15:24;100086.91;;;-11.48;53.94
70323;BME280;57735;56.264;43.898;2023-02-23T08:17:55;100080.09;;;-11.52;53.88
70323;BME280;57735;56.264;43.898;2023-02-23T08:20:26;100091.09;;;-11.41;54.07
70323;BME280;57735;56.264;43.898;2023-02-23T08:22:57;100091.09;;;-11.42;53.94
70323;BME280;57735;56.264;43.898;2023-02-23T08:25:28;100096.00;;;-11.27;53.64
70323;BME280;57735;56.264;43.898;2023-02-23T08:27:59;100106.31;;;-11.29;53.51
70323;BME280;57735;56.264;43.898;2023-02-23T08:30:36;100102.97;;;-11.35;53.84
70323;BME280;57735;56.264;43.898;2023-02-23T08:33:06;100097.06;;;-11.40;53.76
70323;BME280;57735;56.264;43.898;2023-02-23T08:35:37;100098.53;;;-11.24;53.69
70323;BME280;57735;56.264;43.898;2023-02-23T08:38:08;100105.41;;;-11.24;53.85
70323;BME280;57735;56.264;43.898;2023-02-23T08:40:39;100096.66;;;-11.16;53.74
70323;BME280;57735;56.264;43.898;2023-02-23T08:43:10;100106.13;;;-11.18;54.02
70323;BME280;57735;56.264;43.898;2023-02-23T08:45:41;100101.91;;;-11.22;53.75
70323;BME280;57735;56.264;43.898;2023-02-23T08:48:12;100101.88;;;-11.20;54.15
70323;BME280;57735;56.264;43.898;2023-02-23T08:50:46;100100.88;;;-11.12;53.68
70323;BME280;57735;56.264;43.898;2023-02-23T08:53:19;100091.41;;;-11.08;54.08
70323;BME280;57735;56.264;43.898;2023-02-23T08:55:56;100105.00;;;-11.03;53.53
70323;BME280;57735;56.264;43.898;2023-02-23T08:58:29;100103.41;;;-11.07;53.87
70323;BME280;57735;56.264;43.898;2023-02-23T09:01:03;100107.59;;;-11.05;54.26
70323;BME280;57735;56.264;43.898;2023-02-23T09:03:34;100109.03;;;-10.88;53.86
70323;BME280;57735;56.264;43.898;2023-02-23T09:06:09;100119.28;;;-10.85;54.00
70323;BME280;57735;56.264;43.898;2023-02-23T09:08:43;100116.53;;;-10.73;53.71
70323;BME280;57735;56.264;43.898;2023-02-23T09:11:13;100114.84;;;-10.76;53.27
70323;BME280;57735;56.264;43.898;2023-02-23T09:13:44;100115.72;;;-10.77;53.71
70323;BME280;57735;56.264;43.898;2023-02-23T09:16:15;100105.25;;;-10.69;54.17
70323;BME280;57735;56.264;43.898;2023-02-23T09:18:46;100109.25;;;-10.53;53.87
70323;BME280;57735;56.264;43.898;2023-02-23T09:21:19;100115.97;;;-10.44;53.21
70323;BME280;57735;56.264;43.898;2023-02-23T09:23:55;100115.00;;;-10.39;52.90
70323;BME280;57735;56.264;43.898;2023-02-23T09:26:28;100096.00;;;-10.35;52.90
70323;BME280;57735;56.264;43.898;2023-02-23T09:29:00;100102.88;;;-10.34;52.79
70323;BME280;57735;56.264;43.898;2023-02-23T09:31:33;100098.31;;;-10.21;52.71
70323;BME280;57735;56.264;43.898;2023-02-23T09:34:04;100099.88;;;-10.15;52.66
70323;BME280;57735;56.264;43.898;2023-02-23T09:36:38;100095.63;;;-10.16;52.74
70323;BME280;57735;56.264;43.898;2023-02-23T09:39:09;100097.31;;;-10.15;52.50
70323;BME280;57735;56.264;43.898;2023-02-23T09:48:25;100088.56;;;-9.70;52.13
70323;BME280;57735;56.264;43.898;2023-02-23T09:50:58;100107.47;;;-9.69;51.58
70323;BME280;57735;56.264;43.898;2023-02-23T09:53:58;100106.63;;;-9.70;51.75
70323;BME280;57735;56.264;43.898;2023-02-23T09:56:36;100095.41;;;-9.67;51.96
70323;BME280;57735;56.264;43.898;2023-02-23T09:59:15;100095.31;;;-9.63;51.43
70323;BME280;57735;56.264;43.898;2023-02-23T10:04:52;100100.03;;;-9.44;51.15
70323;BME280;57735;56.264;43.898;2023-02-23T10:10:20;100103.28;;;-9.36;51.25
70323;BME280;57735;56.264;43.898;2023-02-23T10:15:48;100104.59;;;-9.20;51.11
70323;BME280;57735;56.264;43.898;2023-02-23T10:21:41;100093.38;;;-9.19;51.73
70323;BME280;57735;56.264;43.898;2023-02-23T10:24:26;100095.59;;;-9.04;51.63
70323;BME280;57735;56.264;43.898;2023-02-23T10:27:04;100109.06;;;-8.91;51.42
70323;BME280;57735;56.264;43.898;2023-02-23T10:29:45;100102.88;;;-8.86;51.45
70323;BME280;57735;56.264;43.898;2023-02-23T10:32:19;100101.16;;;-8.87;51.34
70323;BME280;57735;56.264;43.898;2023-02-23T10:34:54;100094.09;;;-8.78;51.82
70323;BME280;57735;56.264;43.898;2023-02-23T10:37:26;100100.63;;;-8.65;51.83
70323;BME280;57735;56.264;43.898;2023-02-23T10:39:56;100093.69;;;-8.63;51.40
70323;BME280;57735;56.264;43.898;2023-02-23T10:42:27;100092.59;;;-8.55;51.67
70323;BME280;57735;56.264;43.898;2023-02-23T10:44:58;100096.53;;;-8.41;51.52
70323;BME280;57735;56.264;43.898;2023-02-23T10:47:32;100091.34;;;-8.40;51.68
70323;BME280;57735;56.264;43.898;2023-02-23T10:50:04;100107.06;;;-8.49;51.82
70323;BME280;57735;56.264;43.898;2023-02-23T10:52:44;100097.78;;;-8.55;52.19
70323;BME280;57735;56.264;43.898;2023-02-23T10:58:19;100091.75;;;-8.55;52.87
70323;BME280;57735;56.264;43.898;2023-02-23T11:00:57;100099.78;;;-8.35;52.69
70323;BME280;57735;56.264;43.898;2023-02-23T11:03:36;100093.31;;;-8.20;52.63
70323;BME280;57735;56.264;43.898;2023-02-23T11:06:37;100085.63;;;-8.22;52.65
70323;BME280;57735;56.264;43.898;2023-02-23T11:09:23;100087.03;;;-8.12;52.63
70323;BME280;57735;56.264;43.898;2023-02-23T11:12:02;100098.75;;;-8.00;52.47
70323;BME280;57735;56.264;43.898;2023-02-23T11:14:33;100096.00;;;-7.94;52.58
70323;BME280;57735;56.264;43.898;2023-02-23T11:17:29;100087.72;;;-7.77;52.54
70323;BME280;57735;56.264;43.898;2023-02-23T11:22:47;100093.97;;;-7.55;52.14
70323;BME280;57735;56.264;43.898;2023-02-23T11:25:26;100085.66;;;-7.38;51.85
70323;BME280;57735;56.264;43.898;2023-02-23T11:27:58;100073.03;;;-7.21;51.80
70323;BME280;57735;56.264;43.898;2023-02-23T11:30:35;100087.22;;;-7.06;51.24
70323;BME280;57735;56.264;43.898;2023-02-23T11:33:12;100083.81;;;-7.08;51.19
70323;BME280;57735;56.264;43.898;2023-02-23T11:35:46;100079.53;;;-7.09;51.75
70323;BME280;57735;56.264;43.898;2023-02-23T11:38:25;100083.25;;;-7.18;51.75
70323;BME280;57735;56.264;43.898;2023-02-23T11:41:05;100084.00;;;-7.14;51.58
70323;BME280;57735;56.264;43.898;2023-02-23T11:43:47;100092.56;;;-7.12;51.77
70323;BME280;57735;56.264;43.898;2023-02-23T11:46:19;100079.56;;;-7.11;51.94
70323;BME280;57735;56.264;43.898;2023-02-23T11:48:58;100073.66;;;-7.14;51.88
70323;BME280;57735;56.264;43.898;2023-02-23T11:51:32;100076.91;;;-7.08;52.41
70323;BME280;57735;56.264;43.898;2023-02-23T11:54:06;100080.00;;;-6.98;52.49
70323;BME280;57735;56.264;43.898;2023-02-23T11:56:48;100085.66;;;-6.87;52.16
70323;BME280;57735;56.264;43.898;2023-02-23T11:59:37;100083.06;;;-6.87;52.27
70323;BME280;57735;56.264;43.898;2023-02-23T12:05:24;100081.84;;;-6.75;52.13
70323;BME280;57735;56.264;43.898;2023-02-23T12:10:41;100088.53;;;-6.70;52.23
70323;BME280;57735;56.264;43.898;2023-02-23T12:15:52;100081.00;;;-6.52;52.15
70323;BME280;57735;56.264;43.898;2023-02-23T12:18:47;100085.53;;;-6.57;52.04
70323;BME280;57735;56.264;43.898;2023-02-23T12:21:42;100096.31;;;-6.70;52.17
70323;BME280;57735;56.264;43.898;2023-02-23T12:24:43;100081.59;;;-6.69;52.36
70323;BME280;57735;56.264;43.898;2023-02-23T12:27:20;100083.09;;;-6.62;52.74
70323;BME280;57735;56.264;43.898;2023-02-23T12:38:35;100087.22;;;-6.56;52.79
70323;BME280;57735;56.264;43.898;2023-02-23T12:41:12;100080.44;;;-6.60;52.61
70323;BME280;57735;56.264;43.898;2023-02-23T12:43:49;100069.97;;;-6.57;52.51
70323;BME280;57735;56.264;43.898;2023-02-23T12:46:33;100090.81;;;-6.60;52.93
70323;BME280;57735;56.264;43.898;2023-02-23T12:49:30;100068.50;;;-6.64;52.97
70323;BME280;57735;56.264;43.898;2023-02-23T12:52:29;100083.34;;;-6.70;52.81
70323;BME280;57735;56.264;43.898;2023-02-23T12:55:02;100077.28;;;-6.69;53.09
70323;BME280;57735;56.264;43.898;2023-02-23T12:57:48;100080.66;;;-6.66;52.94
70323;BME280;57735;56.264;43.898;2023-02-23T13:06:28;100077.31;;;-6.70;52.77
70323;BME280;57735;56.264;43.898;2023-02-23T13:09:18;100078.28;;;-6.73;53.14
70323;BME280;57735;56.264;43.898;2023-02-23T13:12:18;100082.59;;;-6.72;53.19
70323;BME280;57735;56.264;43.898;2023-02-23T13:18:13;100081.09;;;-6.79;53.55
70323;BME280;57735;56.264;43.898;2023-02-23T13:20:56;100071.53;;;-6.77;53.64
70323;BME280;57735;56.264;43.898;2023-02-23T13:24:05;100078.44;;;-6.77;53.60
70323;BME280;57735;56.264;43.898;2023-02-23T13:26:46;100071.66;;;-6.81;53.81
70323;BME280;57735;56.264;43.898;2023-02-23T13:29:39;100076.06;;;-6.83;53.70
70323;BME280;57735;56.264;43.898;2023-02-23T13:32:20;100078.88;;;-6.89;54.11
70323;BME280;57735;56.264;43.898;2023-02-23T13:35:00;100070.31;;;-6.91;54.34
70323;BME280;57735;56.264;43.898;2023-02-23T13:37:59;100084.91;;;-6.89;54.50
70323;BME280;57735;56.264;43.898;2023-02-23T13:40:45;100089.38;;;-6.94;54.88
70323;BME280;57735;56.264;43.898;2023-02-23T13:51:54;100094.19;;;-7.08;55.32
70323;BME280;57735;56.264;43.898;2023-02-23T13:54:32;100103.69;;;-7.09;55.40
70323;BME280;57735;56.264;43.898;2023-02-23T13:57:13;100099.34;;;-7.08;55.77
70323;BME280;57735;56.264;43.898;2023-02-23T13:59:47;100099.53;;;-7.14;56.05
70323;BME280;57735;56.264;43.898;2023-02-23T14:02:34;100112.69;;;-7.20;56.22
70323;BME280;57735;56.264;43.898;2023-02-23T14:05:26;100104.38;;;-7.30;56.62
70323;BME280;57735;56.264;43.898;2023-02-23T14:08:03;100101.97;;;-7.36;56.72
70323;BME280;57735;56.264;43.898;2023-02-23T14:10:42;100108.97;;;-7.38;56.99
70323;BME280;57735;56.264;43.898;2023-02-23T14:18:52;100121.31;;;-7.48;57.53
70323;BME280;57735;56.264;43.898;2023-02-23T14:21:36;100121.47;;;-7.52;57.63
70323;BME280;57735;56.264;43.898;2023-02-23T14:30:05;100121.97;;;-7.69;57.94
70323;BME280;57735;56.264;43.898;2023-02-23T14:32:41;100121.97;;;-7.69;58.03
70323;BME280;57735;56.264;43.898;2023-02-23T14:38:16;100142.56;;;-7.66;58.06
70323;BME280;57735;56.264;43.898;2023-02-23T14:40:54;100131.66;;;-7.76;58.06
70323;BME280;57735;56.264;43.898;2023-02-23T14:43:39;100147.59;;;-7.89;57.63
70323;BME280;57735;56.264;43.898;2023-02-23T14:46:19;100135.94;;;-8.04;57.86
70323;BME280;57735;56.264;43.898;2023-02-23T14:49:05;100139.72;;;-8.16;58.31
70323;BME280;57735;56.264;43.898;2023-02-23T14:51:44;100147.69;;;-8.23;58.14
70323;BME280;57735;56.264;43.898;2023-02-23T14:54:34;100156.56;;;-8.32;58.37
70323;BME280;57735;56.264;43.898;2023-02-23T14:57:19;100146.44;;;-8.39;58.69
70323;BME280;57735;56.264;43.898;2023-02-23T14:59:52;100149.13;;;-8.42;58.54
70323;BME280;57735;56.264;43.898;2023-02-23T15:02:25;100151.84;;;-8.49;58.82
70323;BME280;57735;56.264;43.898;2023-02-23T15:04:56;100156.25;;;-8.52;58.90
70323;BME280;57735;56.264;43.898;2023-02-23T15:07:31;100169.25;;;-8.55;58.86
70323;BME280;57735;56.264;43.898;2023-02-23T15:12:40;100159.28;;;-8.70;59.36
70323;BME280;57735;56.264;43.898;2023-02-23T15:15:23;100164.59;;;-8.75;59.62
70323;BME280;57735;56.264;43.898;2023-02-23T15:17:58;100159.53;;;-8.79;59.54